Terminal Aerodrome Forecast
Issued by NWS

Home | Current Version | Previous Version | Text Only | Print | Product List | Glossary On
Versions: 1 2 3 4 5 6 7 8 9 10 11 12 13
905
FTUS45 KABQ 250538
TAFSAF
TAF
KSAF 250538Z 2506/2606 36009KT P6SM FEW250
     FM251900 31006KT P6SM SCT250
     FM260400 36011KT P6SM SCT250=

USA.gov is the U.S. government's official web portal to all federal, state and local government web resources and services.